Aérodrome :
LOGIN :

S'inscrire | Disclaimer

   EN    FR    IT 

 










Légende :    VFR   VFR Marginal   IFR   IFR Intensif   IFR Très Intensif
Visi : 
Plafond : 
>= 8 km
>= 3000ft
5 à 8 km
1000 à 3000 ft
1500m à 5 km
500 à 1000 ft
800 à 1500m
200 à 500 ft
< 800m
< 200 ft
Symboles :   Orages  Brouillard  Fortes neiges  Fortes précipitations  Vent > 20 kt
SIGMETs :   Divers  Orages  Givrage  Turbulence  Onde Orograph.  Cendres Volcan.






- Altitude de l'aérodrome : 645 ft
- Code IATA : DLE


LFGJ - Dole Tavaux

DERNIER METAR :
  • 272100Z AUTO 33010KT 300V360 9999 BKN044 BKN062 OVC072 05/00 Q1016

METARs EXPIRÉS :
  • 272030Z AUTO 33011KT 9999 -RA FEW023/// BKN035/// OVC054/// ///TCU 04/02 Q1015
  • 272000Z AUTO 34013G26KT 310V010 9999 -RA BKN033 BKN047 BKN060 06/01 Q1013
  • 271930Z AUTO 30008KT 270V340 9999 FEW046/// BKN068/// ///TCU 07/01 Q1012
  • 271900Z AUTO 28010KT 250V310 9999 BKN041 BKN047 BKN068 07/01 Q1011
  • 271830Z AUTO 27010KT 9999 BKN041/// BKN068/// ///TCU 08/01 Q1010

TAF TAF LFGJ
Valide du 27 à 15h jusqu'au 28 à 00h UTC


271400Z 2715/2724 28015G25KT 9999 BKN025
TEMPO 2715/2719 -SHRA FEW030TCU
PROB30
TEMPO 2715/2718 4000 SHRA FEW025CB



MET'MAP, la Météo Aéronautique d'un coup d'oeil ! - Copyright ORBIFLY Décembre 2007 - Disclaimer

ORBIFLY MET'MAP TEAM :

Programmation & Développement : Alexandra Zaïnal
Sur une idée originale de : Baudouin d'Aumeries
Assistance à la programmation : Marc-Olivier Méhu
Soutien technique & logistique : Manuel Goepfert

Contact : metmap@orbifly.com




SOURCES & CREDITS :

   NOAA